createdAt,value
2019-02-27T00:00:17.351Z,97.70
2019-02-27T00:01:17.611Z,94.20
2019-02-27T00:02:17.315Z,96.60
2019-02-27T00:03:17.333Z,102.30
2019-02-27T00:04:17.291Z,101.00
2019-02-27T00:05:17.292Z,104.60
2019-02-27T00:06:17.273Z,99.60
2019-02-27T00:07:20.804Z,97.60
2019-02-27T00:08:17.350Z,103.90
2019-02-27T00:09:17.241Z,97.60
2019-02-27T00:10:17.237Z,103.50
2019-02-27T00:11:17.260Z,103.60
2019-02-27T00:12:19.366Z,95.50
2019-02-27T00:13:17.223Z,94.00
2019-02-27T00:14:17.187Z,94.50
2019-02-27T00:15:17.175Z,90.30
2019-02-27T00:16:17.169Z,99.20
2019-02-27T00:17:18.215Z,95.60
2019-02-27T00:18:17.160Z,99.80
2019-02-27T00:19:17.125Z,94.00
2019-02-27T00:20:17.112Z,92.80
2019-02-27T00:21:17.107Z,98.00
2019-02-27T00:22:17.639Z,96.20
2019-02-27T00:23:17.099Z,98.30
2019-02-27T00:24:17.091Z,108.70
2019-02-27T00:25:17.061Z,98.70
2019-02-27T00:26:17.047Z,99.00
2019-02-27T00:27:17.050Z,103.80
2019-02-27T00:28:17.043Z,107.80
2019-02-27T00:29:17.030Z,98.70
2019-02-27T00:30:16.998Z,103.50
2019-02-27T00:31:16.989Z,98.30
2019-02-27T00:32:18.659Z,97.90
2019-02-27T00:33:16.985Z,99.10
2019-02-27T00:34:16.971Z,93.30
2019-02-27T00:35:16.954Z,90.00
2019-02-27T00:36:16.935Z,96.40
2019-02-27T00:37:19.037Z,101.10
2019-02-27T00:38:16.926Z,98.00
2019-02-27T00:39:16.921Z,95.30
2019-02-27T00:40:16.900Z,96.60
2019-02-27T00:41:16.887Z,105.80
2019-02-27T00:42:19.509Z,97.70
2019-02-27T00:43:16.879Z,105.10
2019-02-27T00:44:16.848Z,99.60
2019-02-27T00:45:16.847Z,102.80
2019-02-27T00:46:16.830Z,96.40
2019-02-27T00:47:17.054Z,102.80
2019-02-27T00:48:16.804Z,108.90
2019-02-27T00:49:16.802Z,101.40
2019-02-27T00:50:16.778Z,101.40
2019-02-27T00:51:16.766Z,108.10
2019-02-27T00:52:18.389Z,101.40
2019-02-27T00:53:16.742Z,100.50
2019-02-27T00:54:16.748Z,100.10
2019-02-27T00:55:16.732Z,95.80
2019-02-27T00:56:16.718Z,100.10
2019-02-27T00:57:20.589Z,105.60
2019-02-27T00:58:16.704Z,104.30
2019-02-27T00:59:16.688Z,107.90
2019-02-27T01:00:16.659Z,96.20
2019-02-27T01:01:16.654Z,95.60
2019-02-27T01:02:19.973Z,99.10
2019-02-27T01:03:16.641Z,100.60
2019-02-27T01:04:16.643Z,93.10
2019-02-27T01:05:16.625Z,96.10
2019-02-27T01:06:16.650Z,104.10
2019-02-27T01:07:20.234Z,97.80
2019-02-27T01:08:16.594Z,99.30
2019-02-27T01:09:16.597Z,101.80
2019-02-27T01:10:16.557Z,96.90
2019-02-27T01:11:18.397Z,98.10
2019-02-27T01:12:16.536Z,95.70
2019-02-27T01:13:16.516Z,103.90
2019-02-27T01:14:16.530Z,104.30
2019-02-27T01:15:16.501Z,99.30
2019-02-27T01:16:17.260Z,105.10
2019-02-27T01:17:16.481Z,109.80
2019-02-27T01:18:16.478Z,110.90
2019-02-27T01:19:16.500Z,105.00
2019-02-27T01:20:16.475Z,105.60
2019-02-27T01:21:19.187Z,104.00
2019-02-27T01:22:16.423Z,98.50
2019-02-27T01:23:16.410Z,102.00
2019-02-27T01:24:17.416Z,98.50
2019-02-27T01:25:16.408Z,99.00
2019-02-27T01:26:16.380Z,97.30
2019-02-27T01:27:16.378Z,93.70
2019-02-27T01:28:16.373Z,99.10
2019-02-27T01:29:18.105Z,104.20
2019-02-27T01:30:16.331Z,103.70
2019-02-27T01:31:16.335Z,98.90
2019-02-27T01:32:16.311Z,103.90
2019-02-27T01:33:16.306Z,105.70
2019-02-27T01:34:16.297Z,103.00
2019-02-27T01:35:18.781Z,100.80
2019-02-27T01:36:16.282Z,102.00
2019-02-27T01:37:16.262Z,105.80
2019-02-27T01:38:16.250Z,106.90
2019-02-27T01:39:16.243Z,106.20
2019-02-27T01:40:17.940Z,112.60
2019-02-27T01:41:16.208Z,112.20
2019-02-27T01:42:16.212Z,105.80
2019-02-27T01:43:16.193Z,98.00
2019-02-27T01:44:16.181Z,96.40
2019-02-27T01:45:20.596Z,98.30
2019-02-27T01:46:16.154Z,106.20
2019-02-27T01:47:16.150Z,112.20
2019-02-27T01:48:16.128Z,110.80
2019-02-27T01:49:16.792Z,107.90
2019-02-27T01:50:16.142Z,103.80
2019-02-27T01:51:16.121Z,113.10
2019-02-27T01:52:16.082Z,103.10
2019-02-27T01:53:16.080Z,102.90
2019-02-27T01:54:16.063Z,104.70
2019-02-27T01:55:16.071Z,102.20
2019-02-27T01:56:16.040Z,101.90
2019-02-27T01:57:16.020Z,103.10
2019-02-27T01:58:16.020Z,104.60
2019-02-27T01:59:16.980Z,97.90
2019-02-27T02:00:16.009Z,98.20
2019-02-27T02:01:15.982Z,95.20
2019-02-27T02:02:15.982Z,103.70
2019-02-27T02:03:15.961Z,100.20
2019-02-27T02:04:20.034Z,98.10
2019-02-27T02:05:15.949Z,104.60
2019-02-27T02:06:15.945Z,113.00
2019-02-27T02:07:15.915Z,104.60
2019-02-27T02:08:15.910Z,107.80
2019-02-27T02:09:15.920Z,107.10
2019-02-27T02:10:15.892Z,108.40
2019-02-27T02:11:15.870Z,105.40
2019-02-27T02:12:15.867Z,100.00
2019-02-27T02:13:15.897Z,99.30
2019-02-27T02:14:15.838Z,100.90
2019-02-27T02:15:15.848Z,102.30
2019-02-27T02:16:15.838Z,99.30
2019-02-27T02:17:15.818Z,105.00
2019-02-27T02:18:15.790Z,99.50
2019-02-27T02:19:15.780Z,111.50
2019-02-27T02:20:15.784Z,104.20
2019-02-27T02:21:15.785Z,97.30
2019-02-27T02:22:15.748Z,99.70
2019-02-27T02:23:15.760Z,94.80
2019-02-27T02:24:15.731Z,101.10
2019-02-27T02:25:15.728Z,103.00
2019-02-27T02:26:15.729Z,106.40
2019-02-27T02:27:15.698Z,104.60
2019-02-27T02:28:15.694Z,105.10
2019-02-27T02:29:17.869Z,105.30
2019-02-27T02:30:15.665Z,105.40
2019-02-27T02:31:15.671Z,92.60
2019-02-27T02:32:17.503Z,101.30
2019-02-27T02:33:15.630Z,107.00
2019-02-27T02:34:15.621Z,105.30
2019-02-27T02:35:16.026Z,99.60
2019-02-27T02:36:15.619Z,105.00
2019-02-27T02:37:15.592Z,102.40
2019-02-27T02:38:15.563Z,102.50
2019-02-27T02:39:19.085Z,102.10
2019-02-27T02:40:15.549Z,114.80
2019-02-27T02:41:15.552Z,107.20
2019-02-27T02:42:15.533Z,108.20
2019-02-27T02:43:15.512Z,106.80
2019-02-27T02:44:20.697Z,108.40
2019-02-27T02:45:16.493Z,114.20
2019-02-27T02:46:15.501Z,113.70
2019-02-27T02:47:19.743Z,117.80
2019-02-27T02:48:16.482Z,112.10
2019-02-27T02:49:15.471Z,100.30
2019-02-27T02:50:17.852Z,100.10
2019-02-27T02:51:15.456Z,102.40
2019-02-27T02:52:15.415Z,101.30
2019-02-27T02:53:15.403Z,103.10
2019-02-27T02:54:15.388Z,101.70
2019-02-27T02:55:15.381Z,102.60
2019-02-27T02:56:15.378Z,105.90
2019-02-27T02:57:15.389Z,107.30
2019-02-27T02:58:15.365Z,101.70
2019-02-27T02:59:15.334Z,103.00
2019-02-27T03:00:15.343Z,102.60
2019-02-27T03:01:15.472Z,98.50
2019-02-27T03:02:15.309Z,105.20
2019-02-27T03:03:15.290Z,104.90
2019-02-27T03:04:15.279Z,105.00
2019-02-27T03:05:15.266Z,102.10
2019-02-27T03:06:15.302Z,104.40
2019-02-27T03:07:15.254Z,100.70
2019-02-27T03:08:19.953Z,107.70
2019-02-27T03:09:16.218Z,106.10
2019-02-27T03:10:15.236Z,102.80
2019-02-27T03:11:19.131Z,113.90
2019-02-27T03:12:15.215Z,107.90
2019-02-27T03:13:15.179Z,107.70
2019-02-27T03:14:17.639Z,110.90
2019-02-27T03:15:15.166Z,107.40
2019-02-27T03:16:15.153Z,102.40
2019-02-27T03:17:18.248Z,102.10
2019-02-27T03:18:15.127Z,103.20
2019-02-27T03:19:15.119Z,111.70
2019-02-27T03:20:17.709Z,107.90
2019-02-27T03:21:15.099Z,101.80
2019-02-27T03:22:15.094Z,102.70
2019-02-27T03:23:15.737Z,101.80
2019-02-27T03:24:15.056Z,100.20
2019-02-27T03:25:15.046Z,110.30
2019-02-27T03:26:16.957Z,107.70
2019-02-27T03:27:15.036Z,105.80
2019-02-27T03:28:15.024Z,103.50
2019-02-27T03:29:16.802Z,104.80
2019-02-27T03:30:14.988Z,100.30
2019-02-27T03:31:18.323Z,99.90
2019-02-27T03:32:14.998Z,98.70
2019-02-27T03:33:23.339Z,106.70
2019-02-27T03:34:15.956Z,105.50
2019-02-27T03:35:14.936Z,103.70
2019-02-27T03:36:14.936Z,97.70
2019-02-27T03:37:14.934Z,102.50
2019-02-27T03:38:14.903Z,91.00
2019-02-27T03:39:14.903Z,96.90
2019-02-27T03:40:14.878Z,99.70
2019-02-27T03:41:14.882Z,98.70
2019-02-27T03:42:14.874Z,95.30
2019-02-27T03:43:14.862Z,96.70
2019-02-27T03:44:20.247Z,91.10
2019-02-27T03:45:15.837Z,101.30
2019-02-27T03:46:14.820Z,102.80
2019-02-27T03:47:16.645Z,94.10
2019-02-27T03:48:14.801Z,94.20
2019-02-27T03:49:14.794Z,93.50
2019-02-27T03:50:15.654Z,102.00
2019-02-27T03:51:14.755Z,96.10
2019-02-27T03:52:14.782Z,98.40
2019-02-27T03:53:14.757Z,93.30
2019-02-27T03:54:20.869Z,96.40
2019-02-27T03:55:15.709Z,99.60
2019-02-27T03:56:14.706Z,96.80
2019-02-27T03:57:18.970Z,102.10
2019-02-27T03:58:15.741Z,100.30
2019-02-27T03:59:14.667Z,97.20
2019-02-27T04:00:17.991Z,94.30
2019-02-27T04:01:14.699Z,97.30
2019-02-27T04:02:14.672Z,105.10
2019-02-27T04:03:18.189Z,101.20
2019-02-27T04:04:14.618Z,105.20
2019-02-27T04:05:14.613Z,100.20
2019-02-27T04:06:20.169Z,96.30
2019-02-27T04:07:15.620Z,98.30
2019-02-27T04:08:14.576Z,102.10
2019-02-27T04:09:18.557Z,106.20
2019-02-27T04:10:15.549Z,98.00
2019-02-27T04:11:14.539Z,101.10
2019-02-27T04:12:16.627Z,101.30
2019-02-27T04:13:14.515Z,99.40
2019-02-27T04:14:14.511Z,90.50
2019-02-27T04:15:17.770Z,96.90
2019-02-27T04:16:14.524Z,98.10
2019-02-27T04:17:14.542Z,101.80
2019-02-27T04:18:14.472Z,103.80
2019-02-27T04:19:14.446Z,105.50
2019-02-27T04:20:15.573Z,102.20
2019-02-27T04:21:14.429Z,103.10
2019-02-27T04:22:14.431Z,101.90
2019-02-27T04:23:14.414Z,99.70
2019-02-27T04:24:14.389Z,99.20
2019-02-27T04:25:14.394Z,96.70
2019-02-27T04:26:14.374Z,103.40
2019-02-27T04:27:20.026Z,94.60
2019-02-27T04:28:15.339Z,91.20
2019-02-27T04:29:14.334Z,91.90
2019-02-27T04:30:15.007Z,100.00
2019-02-27T04:31:14.313Z,98.40
2019-02-27T04:32:14.335Z,99.60
2019-02-27T04:33:14.306Z,100.30
2019-02-27T04:34:14.299Z,94.70
2019-02-27T04:35:14.269Z,104.00
2019-02-27T04:36:14.267Z,95.20
2019-02-27T04:37:14.259Z,95.60
2019-02-27T04:38:14.251Z,96.60
2019-02-27T04:39:14.221Z,97.80
2019-02-27T04:40:14.220Z,99.60
2019-02-27T04:41:17.826Z,98.50
2019-02-27T04:42:14.200Z,98.70
2019-02-27T04:43:14.198Z,95.10
2019-02-27T04:44:14.193Z,93.20
2019-02-27T04:45:14.163Z,94.80
2019-02-27T04:46:14.152Z,102.20
2019-02-27T04:47:14.139Z,99.90
2019-02-27T04:48:14.145Z,111.20
2019-02-27T04:49:14.130Z,98.50
2019-02-27T04:50:14.109Z,97.30
2019-02-27T04:51:16.905Z,92.60
2019-02-27T04:52:14.083Z,96.90
2019-02-27T04:53:14.125Z,95.70
2019-02-27T04:54:14.063Z,98.80
2019-02-27T04:55:15.616Z,92.20
2019-02-27T04:56:14.054Z,100.20
2019-02-27T04:57:14.050Z,100.00
2019-02-27T04:58:14.049Z,95.90
2019-02-27T04:59:18.282Z,92.50
2019-02-27T05:00:14.006Z,88.90
2019-02-27T05:01:13.995Z,100.20
2019-02-27T05:02:14.667Z,97.10
2019-02-27T05:03:13.983Z,98.90
2019-02-27T05:04:13.952Z,96.40
2019-02-27T05:05:13.952Z,98.00
2019-02-27T05:06:14.524Z,100.50
2019-02-27T05:07:13.936Z,93.90
2019-02-27T05:08:13.937Z,93.40
2019-02-27T05:09:13.903Z,96.10
2019-02-27T05:10:13.892Z,96.10
2019-02-27T05:11:14.781Z,97.40
2019-02-27T05:12:13.866Z,101.90
2019-02-27T05:13:13.874Z,92.40
2019-02-27T05:14:13.853Z,102.60
2019-02-27T05:15:13.834Z,97.10
2019-02-27T05:16:14.730Z,96.20
2019-02-27T05:17:13.824Z,93.30
2019-02-27T05:18:13.841Z,96.10
2019-02-27T05:19:15.277Z,103.10
2019-02-27T05:20:13.788Z,98.50
2019-02-27T05:21:13.767Z,101.70
2019-02-27T05:22:13.760Z,98.90
2019-02-27T05:23:13.773Z,97.60
2019-02-27T05:24:13.752Z,102.50
2019-02-27T05:25:14.472Z,105.00
2019-02-27T05:26:13.724Z,99.90
2019-02-27T05:27:13.707Z,103.80
2019-02-27T05:28:13.687Z,100.00
2019-02-27T05:29:15.751Z,96.00
2019-02-27T05:30:13.883Z,92.90
2019-02-27T05:31:17.971Z,93.10
2019-02-27T05:32:13.663Z,92.90
2019-02-27T05:33:13.652Z,91.60
2019-02-27T05:34:13.717Z,91.10
2019-02-27T05:35:13.630Z,92.10
2019-02-27T05:36:13.621Z,101.40
2019-02-27T05:37:13.593Z,98.60
2019-02-27T05:38:13.594Z,98.60
2019-02-27T05:39:17.000Z,97.80
2019-02-27T05:40:13.580Z,105.50
2019-02-27T05:41:13.609Z,93.70
2019-02-27T05:42:13.554Z,103.80
2019-02-27T05:43:14.065Z,98.80
2019-02-27T05:44:13.544Z,94.90
2019-02-27T05:45:13.506Z,98.90
2019-02-27T05:46:15.079Z,103.70
2019-02-27T05:47:13.484Z,104.80
2019-02-27T05:48:13.486Z,108.40
2019-02-27T05:49:13.490Z,103.60
2019-02-27T05:50:13.472Z,97.40
2019-02-27T05:51:13.481Z,106.20
2019-02-27T05:52:14.367Z,104.70
2019-02-27T05:53:13.430Z,97.10
2019-02-27T05:54:13.439Z,108.20
2019-02-27T05:55:13.408Z,94.70
2019-02-27T05:56:15.827Z,104.00
2019-02-27T05:57:13.381Z,98.20
2019-02-27T05:58:13.367Z,107.00
2019-02-27T05:59:13.356Z,98.20
2019-02-27T06:00:13.373Z,102.80
2019-02-27T06:01:13.346Z,100.20
2019-02-27T06:02:13.332Z,96.50
2019-02-27T06:03:13.336Z,104.50
2019-02-27T06:04:13.327Z,105.30
2019-02-27T06:05:13.314Z,102.60
2019-02-27T06:06:13.282Z,100.90
2019-02-27T06:07:13.270Z,105.10
2019-02-27T06:08:13.277Z,100.30
2019-02-27T06:09:13.264Z,96.50
2019-02-27T06:10:13.393Z,105.50
2019-02-27T06:11:13.246Z,100.40
2019-02-27T06:12:13.221Z,102.50
2019-02-27T06:13:14.198Z,92.40
2019-02-27T06:14:13.227Z,101.00
2019-02-27T06:15:13.206Z,93.50
2019-02-27T06:16:13.186Z,98.90
2019-02-27T06:17:13.568Z,96.40
2019-02-27T06:18:13.158Z,97.90
2019-02-27T06:19:13.140Z,95.20
2019-02-27T06:20:13.161Z,105.60
2019-02-27T06:21:13.378Z,99.50
2019-02-27T06:22:13.124Z,96.50
2019-02-27T06:23:13.105Z,102.30
2019-02-27T06:24:13.095Z,97.80
2019-02-27T06:25:13.106Z,100.10
2019-02-27T06:26:13.083Z,99.40
2019-02-27T06:27:13.052Z,103.30
2019-02-27T06:28:13.097Z,96.90
2019-02-27T06:29:13.039Z,99.40
2019-02-27T06:30:13.085Z,101.00
2019-02-27T06:31:13.021Z,103.10
2019-02-27T06:32:13.001Z,95.70
2019-02-27T06:33:12.990Z,98.10
2019-02-27T06:34:13.045Z,104.80
2019-02-27T06:35:12.977Z,100.60
2019-02-27T06:36:12.961Z,112.60
2019-02-27T06:37:15.362Z,105.00
2019-02-27T06:38:12.938Z,108.80
2019-02-27T06:39:12.925Z,103.10
2019-02-27T06:40:12.935Z,99.80
2019-02-27T06:41:15.436Z,103.70
2019-02-27T06:42:12.977Z,100.40
2019-02-27T06:43:12.892Z,116.30
2019-02-27T06:44:12.874Z,102.90
2019-02-27T06:45:13.307Z,104.60
2019-02-27T06:46:12.872Z,105.60
2019-02-27T06:47:12.848Z,102.50
2019-02-27T06:48:12.840Z,102.00
2019-02-27T06:49:17.277Z,104.70
2019-02-27T06:50:13.827Z,99.60
2019-02-27T06:51:12.838Z,102.90
2019-02-27T06:52:12.822Z,107.40
2019-02-27T06:53:15.601Z,100.90
2019-02-27T06:54:12.763Z,102.20
2019-02-27T06:55:13.328Z,103.70
2019-02-27T06:56:12.998Z,104.60
2019-02-27T06:57:12.733Z,103.30
2019-02-27T06:58:14.805Z,103.30
2019-02-27T06:59:12.719Z,105.10
2019-02-27T07:00:12.706Z,101.90
2019-02-27T07:01:13.224Z,107.40
2019-02-27T07:02:12.695Z,108.90
2019-02-27T07:03:12.679Z,105.10
2019-02-27T07:04:12.650Z,104.60
2019-02-27T07:05:13.577Z,106.50
2019-02-27T07:06:12.656Z,105.70
2019-02-27T07:07:12.624Z,106.60
2019-02-27T07:08:12.623Z,101.30
2019-02-27T07:09:12.595Z,110.10
2019-02-27T07:10:12.588Z,103.70
2019-02-27T07:11:12.608Z,111.70
2019-02-27T07:12:12.586Z,107.40
2019-02-27T07:13:12.575Z,103.70
2019-02-27T07:14:12.544Z,102.70
2019-02-27T07:15:12.902Z,105.50
2019-02-27T07:16:12.546Z,99.30
2019-02-27T07:17:12.511Z,96.90
2019-02-27T07:18:12.533Z,106.60
2019-02-27T07:19:13.144Z,104.30
2019-02-27T07:20:12.498Z,116.00
2019-02-27T07:21:12.514Z,113.30
2019-02-27T07:22:12.718Z,105.10
2019-02-27T07:23:12.444Z,106.90
2019-02-27T07:24:12.434Z,105.60
2019-02-27T07:25:12.424Z,104.10
2019-02-27T07:26:13.251Z,106.20
2019-02-27T07:27:12.417Z,104.80
2019-02-27T07:28:12.390Z,99.10
2019-02-27T07:29:21.140Z,101.10
2019-02-27T07:30:13.366Z,103.90
2019-02-27T07:31:12.563Z,108.30
2019-02-27T07:32:12.368Z,103.00
2019-02-27T07:33:12.350Z,106.10
2019-02-27T07:34:14.371Z,100.50
2019-02-27T07:35:12.317Z,104.50
2019-02-27T07:36:12.311Z,105.10
2019-02-27T07:37:12.916Z,110.40
2019-02-27T07:38:12.292Z,106.10
2019-02-27T07:39:12.267Z,111.90
2019-02-27T07:40:12.422Z,100.70
2019-02-27T07:41:12.250Z,99.90
2019-02-27T07:42:12.251Z,106.00
2019-02-27T07:43:12.238Z,103.60
2019-02-27T07:44:12.218Z,108.40
2019-02-27T07:45:12.242Z,101.20
2019-02-27T07:46:12.185Z,96.40
2019-02-27T07:47:12.205Z,97.80
2019-02-27T07:48:12.183Z,88.80
2019-02-27T07:49:12.152Z,81.20
2019-02-27T07:50:12.145Z,76.60
2019-02-27T07:51:12.132Z,88.00
2019-02-27T07:52:12.133Z,86.60
2019-02-27T07:53:12.107Z,81.20
2019-02-27T07:54:12.091Z,84.40
2019-02-27T07:55:19.965Z,81.00
2019-02-27T07:56:13.089Z,83.00
2019-02-27T07:57:12.099Z,82.50
2019-02-27T07:58:12.054Z,78.60
2019-02-27T07:59:12.057Z,73.00
2019-02-27T08:00:14.993Z,75.70
2019-02-27T08:01:12.025Z,68.40
2019-02-27T08:02:12.005Z,73.00
2019-02-27T08:03:13.086Z,71.30
2019-02-27T08:04:12.001Z,71.90
2019-02-27T08:05:11.985Z,67.10
2019-02-27T08:06:11.978Z,67.00
2019-02-27T08:07:12.377Z,65.10
2019-02-27T08:08:11.967Z,68.30
2019-02-27T08:09:11.951Z,67.00
2019-02-27T08:10:11.929Z,67.30
2019-02-27T08:11:13.591Z,68.50
2019-02-27T08:12:11.910Z,69.70
2019-02-27T08:13:11.912Z,66.00
2019-02-27T08:14:12.979Z,63.20
2019-02-27T08:15:13.562Z,60.20
2019-02-27T08:16:11.871Z,67.70
2019-02-27T08:17:17.606Z,64.20
2019-02-27T08:18:12.909Z,60.10
2019-02-27T08:19:12.288Z,60.00
2019-02-27T08:20:11.812Z,62.50
2019-02-27T08:21:11.796Z,62.30
2019-02-27T08:22:11.793Z,61.50
2019-02-27T08:23:11.789Z,62.10
2019-02-27T08:24:11.759Z,62.10
2019-02-27T08:25:11.753Z,63.40
2019-02-27T08:26:11.769Z,67.30
2019-02-27T08:27:11.743Z,61.30
2019-02-27T08:28:11.747Z,57.00
2019-02-27T08:29:11.723Z,60.20
2019-02-27T08:30:11.696Z,58.40
2019-02-27T08:31:11.694Z,59.10
2019-02-27T08:32:11.679Z,60.40
2019-02-27T08:33:11.662Z,59.70
2019-02-27T08:34:11.683Z,60.30
2019-02-27T08:35:11.647Z,58.60
2019-02-27T08:36:11.646Z,61.90
2019-02-27T08:37:11.625Z,59.40
2019-02-27T08:38:11.610Z,59.60
2019-02-27T08:39:11.635Z,57.20
2019-02-27T08:40:11.627Z,58.10
2019-02-27T08:41:11.581Z,59.90
2019-02-27T08:42:11.575Z,62.20
2019-02-27T08:43:11.569Z,63.40
2019-02-27T08:44:12.293Z,57.90
2019-02-27T08:45:19.268Z,65.70
2019-02-27T08:46:12.520Z,56.80
2019-02-27T08:47:11.510Z,54.80
2019-02-27T08:48:11.529Z,58.60
2019-02-27T08:49:11.508Z,60.70
2019-02-27T08:50:11.482Z,56.50
2019-02-27T08:51:11.485Z,60.10
2019-02-27T08:52:15.257Z,58.20
2019-02-27T08:53:11.439Z,57.60
2019-02-27T08:54:11.462Z,58.50
2019-02-27T08:55:18.582Z,60.10
2019-02-27T08:56:12.964Z,60.80
2019-02-27T08:57:11.408Z,56.00
2019-02-27T08:58:11.396Z,55.90
2019-02-27T08:59:11.388Z,58.80
2019-02-27T09:00:14.172Z,57.10
2019-02-27T09:01:11.356Z,55.70
2019-02-27T09:02:11.355Z,58.20
2019-02-27T09:03:19.964Z,54.70
2019-02-27T09:04:12.432Z,57.80
2019-02-27T09:05:11.320Z,58.10
2019-02-27T09:06:11.302Z,61.00
2019-02-27T09:07:11.286Z,58.00
2019-02-27T09:08:11.291Z,57.40
2019-02-27T09:09:11.288Z,55.70
2019-02-27T09:10:11.265Z,59.90
2019-02-27T09:11:11.254Z,60.80
2019-02-27T09:12:13.388Z,57.10
2019-02-27T09:13:11.227Z,59.50
2019-02-27T09:14:12.049Z,58.10
2019-02-27T09:15:11.209Z,55.00
2019-02-27T09:16:11.190Z,56.70
2019-02-27T09:17:11.188Z,55.00
2019-02-27T09:18:11.179Z,56.20
2019-02-27T09:20:12.148Z,57.40
2019-02-27T09:21:11.146Z,55.50
2019-02-27T09:22:11.130Z,60.30
2019-02-27T09:23:11.103Z,56.60
2019-02-27T09:24:11.120Z,59.30
2019-02-27T09:25:11.089Z,58.10
2019-02-27T09:26:11.077Z,59.50
2019-02-27T09:27:11.078Z,60.70
2019-02-27T09:28:11.066Z,63.10
2019-02-27T09:29:11.045Z,57.80
2019-02-27T09:30:11.056Z,58.20
2019-02-27T09:31:12.175Z,58.90
2019-02-27T09:32:11.665Z,56.50
2019-02-27T09:33:11.011Z,60.90
2019-02-27T09:34:11.024Z,58.60
2019-02-27T09:35:11.031Z,54.60
2019-02-27T09:36:11.051Z,56.90
2019-02-27T09:37:10.976Z,57.00
2019-02-27T09:38:10.954Z,52.60
2019-02-27T09:39:10.947Z,55.70
2019-02-27T09:40:10.943Z,54.50
2019-02-27T09:41:12.409Z,57.80
2019-02-27T09:42:10.908Z,54.70
2019-02-27T09:43:11.746Z,54.10
2019-02-27T09:44:10.887Z,51.90
2019-02-27T09:45:11.131Z,57.00
2019-02-27T09:46:10.861Z,56.20
2019-02-27T09:47:10.871Z,53.70
2019-02-27T09:48:10.835Z,51.20
2019-02-27T09:49:10.835Z,54.50
2019-02-27T09:50:11.887Z,52.80
2019-02-27T09:51:10.800Z,51.10
2019-02-27T09:52:10.789Z,57.20
2019-02-27T09:53:10.804Z,50.00
2019-02-27T09:54:10.969Z,50.40
2019-02-27T09:55:10.764Z,50.60
2019-02-27T09:56:11.626Z,53.60
2019-02-27T09:57:10.751Z,51.10
2019-02-27T09:58:11.475Z,53.40
2019-02-27T09:59:10.715Z,48.50
2019-02-27T10:00:10.732Z,47.50
2019-02-27T10:01:10.697Z,45.70
2019-02-27T10:02:12.518Z,48.30
2019-02-27T10:03:10.668Z,47.60
2019-02-27T10:04:10.660Z,49.50
2019-02-27T10:05:12.431Z,47.00
2019-02-27T10:06:10.639Z,51.90
2019-02-27T10:07:10.644Z,47.10
2019-02-27T10:08:10.614Z,46.70
2019-02-27T10:09:10.602Z,42.30
2019-02-27T10:10:11.008Z,44.40
2019-02-27T10:11:10.586Z,51.60
2019-02-27T10:12:10.576Z,47.70
2019-02-27T10:13:10.563Z,47.30
2019-02-27T10:14:10.548Z,47.60
2019-02-27T10:15:10.613Z,47.90
2019-02-27T10:16:10.528Z,44.80
2019-02-27T10:17:10.537Z,42.80
2019-02-27T10:18:10.499Z,46.60
2019-02-27T10:19:10.494Z,48.80
2019-02-27T10:20:10.516Z,48.20
2019-02-27T10:21:12.042Z,47.00
2019-02-27T10:22:10.492Z,44.90
2019-02-27T10:23:10.462Z,43.90
2019-02-27T10:24:10.436Z,41.90
2019-02-27T10:25:10.448Z,41.10
2019-02-27T10:26:10.418Z,44.80
2019-02-27T10:27:10.412Z,43.00
2019-02-27T10:28:10.758Z,43.50
2019-02-27T10:29:10.955Z,39.70
2019-02-27T10:30:11.740Z,43.50
2019-02-27T10:31:10.367Z,42.90
2019-02-27T10:32:10.350Z,43.20
2019-02-27T10:33:11.150Z,46.70
2019-02-27T10:34:10.330Z,40.20
2019-02-27T10:35:10.333Z,41.60
2019-02-27T10:36:10.768Z,43.00
2019-02-27T10:37:12.899Z,41.50
2019-02-27T10:38:10.294Z,42.20
2019-02-27T10:39:10.307Z,39.60
2019-02-27T10:40:11.461Z,43.10
2019-02-27T10:41:10.250Z,45.10
2019-02-27T10:42:10.257Z,44.80
2019-02-27T10:43:10.247Z,40.50
2019-02-27T10:44:10.230Z,39.70
2019-02-27T10:45:10.711Z,43.40
2019-02-27T10:46:10.204Z,42.30
2019-02-27T10:47:10.181Z,43.20
2019-02-27T10:48:12.570Z,40.60
2019-02-27T10:49:10.154Z,40.40
2019-02-27T10:50:10.143Z,41.30
2019-02-27T10:51:10.226Z,40.00
2019-02-27T10:52:10.141Z,35.30
2019-02-27T10:53:10.112Z,37.20
2019-02-27T10:54:10.100Z,41.40
2019-02-27T10:55:11.368Z,40.20
2019-02-27T10:56:10.092Z,36.40
2019-02-27T10:57:10.069Z,36.60
2019-02-27T10:58:13.011Z,35.40
2019-02-27T10:59:10.060Z,35.10
2019-02-27T11:00:10.044Z,36.10
2019-02-27T11:01:10.051Z,39.70
2019-02-27T11:02:12.503Z,38.30
2019-02-27T11:03:10.004Z,41.00
2019-02-27T11:04:09.989Z,37.20
2019-02-27T11:05:10.004Z,39.10
2019-02-27T11:06:09.980Z,40.30
2019-02-27T11:07:10.019Z,37.40
2019-02-27T11:08:09.960Z,40.70
2019-02-27T11:09:09.932Z,38.30
2019-02-27T11:10:09.927Z,34.10
2019-02-27T11:11:09.918Z,34.20
2019-02-27T11:12:09.922Z,33.50
2019-02-27T11:13:09.887Z,33.40
2019-02-27T11:14:09.876Z,36.30
2019-02-27T11:15:09.870Z,34.60
2019-02-27T11:16:09.862Z,32.90
2019-02-27T11:17:09.890Z,34.10
2019-02-27T11:18:09.848Z,32.10
2019-02-27T11:19:09.830Z,33.20
2019-02-27T11:20:09.815Z,34.40
2019-02-27T11:21:09.805Z,35.30
2019-02-27T11:22:09.807Z,37.10
2019-02-27T11:23:09.787Z,34.60
2019-02-27T11:24:09.776Z,37.60
2019-02-27T11:25:09.764Z,38.00
2019-02-27T11:26:09.814Z,36.90
2019-02-27T11:27:09.762Z,35.50
2019-02-27T11:28:09.727Z,34.50
2019-02-27T11:29:09.727Z,35.70
2019-02-27T11:30:09.699Z,35.20
2019-02-27T11:31:10.962Z,37.60
2019-02-27T11:32:09.703Z,34.10
2019-02-27T11:33:09.662Z,36.30
2019-02-27T11:34:09.665Z,35.10
2019-02-27T11:35:09.644Z,38.00
2019-02-27T11:36:09.630Z,34.60
2019-02-27T11:37:12.875Z,34.00
2019-02-27T11:38:09.653Z,33.70
2019-02-27T11:39:09.600Z,32.30
2019-02-27T11:40:09.596Z,31.30
2019-02-27T11:41:09.590Z,33.50
2019-02-27T11:42:09.569Z,27.10
2019-02-27T11:43:09.582Z,29.20
2019-02-27T11:44:14.152Z,28.50
2019-02-27T11:45:09.541Z,29.00
2019-02-27T11:46:09.533Z,26.40
2019-02-27T11:47:11.370Z,26.90
2019-02-27T11:48:09.525Z,27.00
2019-02-27T11:49:09.503Z,27.40
2019-02-27T11:50:09.486Z,28.60
2019-02-27T11:51:09.470Z,26.90
2019-02-27T11:52:09.453Z,28.70
2019-02-27T11:53:09.475Z,29.70
2019-02-27T11:54:09.439Z,31.50
2019-02-27T11:55:09.417Z,29.00
2019-02-27T11:56:09.426Z,28.60
2019-02-27T11:57:09.403Z,25.80
2019-02-27T11:58:09.411Z,25.20
2019-02-27T11:59:12.552Z,26.40
2019-02-27T12:00:09.374Z,27.40
2019-02-27T12:01:09.352Z,26.20
2019-02-27T12:02:09.359Z,29.50
2019-02-27T12:03:11.063Z,29.90
2019-02-27T12:04:09.333Z,30.30
2019-02-27T12:05:09.323Z,28.40
2019-02-27T12:06:09.293Z,27.90
2019-02-27T12:07:09.304Z,23.70
2019-02-27T12:08:11.323Z,27.80
2019-02-27T12:09:09.277Z,27.80
2019-02-27T12:10:09.621Z,30.10
2019-02-27T12:11:09.714Z,27.60
2019-02-27T12:12:10.474Z,24.80
2019-02-27T12:13:09.234Z,25.70
2019-02-27T12:14:09.740Z,26.60
2019-02-27T12:15:09.787Z,26.90
2019-02-27T12:16:10.647Z,29.20
2019-02-27T12:17:09.187Z,27.60
2019-02-27T12:18:09.171Z,26.80
2019-02-27T12:19:09.512Z,31.00
2019-02-27T12:20:09.147Z,29.50
2019-02-27T12:21:09.142Z,27.70
2019-02-27T12:22:09.157Z,27.30
2019-02-27T12:23:10.105Z,23.40
2019-02-27T12:24:09.124Z,24.40
2019-02-27T12:25:09.099Z,24.80
2019-02-27T12:26:09.070Z,24.10
2019-02-27T12:27:11.845Z,27.30
2019-02-27T12:28:10.090Z,27.70
2019-02-27T12:29:09.059Z,24.50
2019-02-27T12:30:09.057Z,24.90
2019-02-27T12:31:11.068Z,24.30
2019-02-27T12:32:09.009Z,23.20
2019-02-27T12:33:09.009Z,23.50
2019-02-27T12:34:09.023Z,22.60
2019-02-27T12:35:10.877Z,22.70
2019-02-27T12:36:09.065Z,24.10
2019-02-27T12:37:19.144Z,26.40
2019-02-27T12:38:11.403Z,25.00
2019-02-27T12:39:08.924Z,22.30
2019-02-27T12:40:08.937Z,26.00
2019-02-27T12:41:08.911Z,24.50
2019-02-27T12:42:08.903Z,22.10
2019-02-27T12:43:08.886Z,24.80
2019-02-27T12:44:08.889Z,23.20